WZZ1EL EDDS-LZKZ
Flight info
| Callsign | WZZ1EL |
|---|---|
| Flight time | 1h 15m |
| Altitude | 35000 |
| Route | ABTAL4B/25 ABTAL DCT RIXED DCT RIDAR DCT MIQ DCT ESEGA DCT SITNI DCT PESAT DCT GYR DCT ARFOX DCT TAKOS |
| Aircraft | A320/M-SDE3FGHIRWY/LB1 |
Departure
| Time | 2026-05-06 17:59 |
|---|---|
| Airport | Stuttgart Airport (EDDS) |
Arrival
| Time | 2026-05-06 19:15 |
|---|---|
| Airport | Košice International Airport (LZKZ) |
| Time | Latitude | Longitude | Altitude | Speed | Heading |
|---|---|---|---|---|---|
| 2026-05-06 17:38 | 48.68911 | 9.19514 | 1286 ft | 0 kts | 343° |
| 2026-05-06 17:46 | 48.68900 | 9.19518 | 1291 ft | 2 kts | 343° |
| 2026-05-06 17:46 | 48.68884 | 9.19526 | 1287 ft | 2 kts | 343° |
| 2026-05-06 17:46 | 48.68869 | 9.19533 | 1290 ft | 2 kts | 343° |
| 2026-05-06 17:47 | 48.68852 | 9.19538 | 1288 ft | 2 kts | 11° |
| 2026-05-06 17:47 | 48.68837 | 9.19529 | 1290 ft | 2 kts | 45° |
| 2026-05-06 17:47 | 48.68830 | 9.19516 | 1290 ft | 0 kts | 65° |
| 2026-05-06 17:49 | 48.68833 | 9.19531 | 1290 ft | 4 kts | 73° |
| 2026-05-06 17:49 | 48.68848 | 9.19606 | 1290 ft | 10 kts | 73° |
| 2026-05-06 17:49 | 48.68874 | 9.19742 | 1288 ft | 16 kts | 74° |
| 2026-05-06 17:49 | 48.68879 | 9.19878 | 1285 ft | 4 kts | 120° |
| 2026-05-06 17:50 | 48.68839 | 9.19907 | 1288 ft | 11 kts | 146° |
| 2026-05-06 17:50 | 48.68833 | 9.20003 | 1289 ft | 9 kts | 82° |
| 2026-05-06 17:50 | 48.68853 | 9.20114 | 1287 ft | 14 kts | 73° |
| 2026-05-06 17:50 | 48.68884 | 9.20281 | 1285 ft | 19 kts | 74° |
| 2026-05-06 17:51 | 48.68923 | 9.20489 | 1287 ft | 17 kts | 75° |
| 2026-05-06 17:51 | 48.68928 | 9.20517 | 1286 ft | 0 kts | 75° |
| 2026-05-06 17:54 | 48.68934 | 9.20546 | 1288 ft | 6 kts | 72° |
| 2026-05-06 17:54 | 48.68952 | 9.20636 | 1289 ft | 11 kts | 74° |
| 2026-05-06 17:54 | 48.68970 | 9.20730 | 1287 ft | 6 kts | 74° |
| 2026-05-06 17:55 | 48.68973 | 9.20744 | 1286 ft | 1 kts | 74° |
| 2026-05-06 17:55 | 48.68981 | 9.20788 | 1286 ft | 8 kts | 74° |
| 2026-05-06 17:55 | 48.69001 | 9.20893 | 1286 ft | 10 kts | 74° |
| 2026-05-06 17:55 | 48.69027 | 9.21034 | 1286 ft | 17 kts | 74° |
| 2026-05-06 17:56 | 48.69068 | 9.21243 | 1289 ft | 24 kts | 73° |
| 2026-05-06 17:56 | 48.69119 | 9.21515 | 1288 ft | 30 kts | 75° |
| 2026-05-06 17:56 | 48.69183 | 9.21849 | 1289 ft | 35 kts | 74° |
| 2026-05-06 17:56 | 48.69250 | 9.22229 | 1290 ft | 37 kts | 72° |
| 2026-05-06 17:57 | 48.69322 | 9.22580 | 1290 ft | 34 kts | 74° |
| 2026-05-06 17:57 | 48.69383 | 9.22919 | 1288 ft | 31 kts | 74° |
| 2026-05-06 17:57 | 48.69441 | 9.23221 | 1287 ft | 29 kts | 74° |
| 2026-05-06 17:57 | 48.69494 | 9.23502 | 1290 ft | 25 kts | 72° |
| 2026-05-06 17:58 | 48.69487 | 9.23698 | 1288 ft | 15 kts | 131° |
| 2026-05-06 17:58 | 48.69408 | 9.23717 | 1290 ft | 11 kts | 202° |
| 2026-05-06 17:58 | 48.69293 | 9.23552 | 1285 ft | 32 kts | 226° |
| 2026-05-06 17:58 | 48.69165 | 9.23145 | 1285 ft | 68 kts | 253° |
| 2026-05-06 17:59 | 48.68990 | 9.22192 | 1288 ft | 118 kts | 254° |
| 2026-05-06 17:59 | 48.68708 | 9.20703 | 1388 ft | 168 kts | 253° |
| 2026-05-06 17:59 | 48.68387 | 9.18967 | 1921 ft | 173 kts | 253° |
| 2026-05-06 17:59 | 48.68054 | 9.17205 | 2530 ft | 176 kts | 253° |
| 2026-05-06 18:00 | 48.67690 | 9.15345 | 2858 ft | 194 kts | 253° |
| 2026-05-06 18:00 | 48.67286 | 9.13302 | 3310 ft | 211 kts | 253° |
| 2026-05-06 18:00 | 48.66832 | 9.11109 | 3883 ft | 224 kts | 248° |
| 2026-05-06 18:00 | 48.65840 | 9.09321 | 4642 ft | 230 kts | 211° |
| 2026-05-06 18:01 | 48.64932 | 9.08812 | 4863 ft | 240 kts | 190° |
| 2026-05-06 18:01 | 48.63507 | 9.09054 | 4945 ft | 248 kts | 159° |
| 2026-05-06 18:01 | 48.62062 | 9.10535 | 5006 ft | 255 kts | 133° |
| 2026-05-06 18:01 | 48.61319 | 9.12931 | 5091 ft | 261 kts | 99° |
| 2026-05-06 18:02 | 48.61343 | 9.15751 | 5566 ft | 278 kts | 82° |
| 2026-05-06 18:02 | 48.61578 | 9.18712 | 6213 ft | 288 kts | 85° |
| 2026-05-06 18:02 | 48.61735 | 9.21739 | 7027 ft | 290 kts | 87° |
| 2026-05-06 18:02 | 48.61885 | 9.24795 | 7808 ft | 293 kts | 82° |
| 2026-05-06 18:03 | 48.62384 | 9.27784 | 8577 ft | 295 kts | 69° |
| 2026-05-06 18:03 | 48.63181 | 9.30670 | 9329 ft | 299 kts | 67° |
| 2026-05-06 18:03 | 48.64003 | 9.33582 | 10032 ft | 303 kts | 67° |
| 2026-05-06 18:03 | 48.64854 | 9.36579 | 10430 ft | 318 kts | 67° |
| 2026-05-06 18:04 | 48.65749 | 9.39737 | 10749 ft | 335 kts | 68° |
| 2026-05-06 18:04 | 48.66657 | 9.43064 | 11029 ft | 351 kts | 73° |
| 2026-05-06 18:04 | 48.67023 | 9.46762 | 11300 ft | 362 kts | 94° |
| 2026-05-06 18:04 | 48.66839 | 9.50627 | 11645 ft | 374 kts | 96° |
| 2026-05-06 18:05 | 48.66619 | 9.54566 | 12195 ft | 378 kts | 97° |
| 2026-05-06 18:05 | 48.66391 | 9.58546 | 12833 ft | 381 kts | 97° |
| 2026-05-06 18:05 | 48.66145 | 9.62558 | 13450 ft | 384 kts | 98° |
| 2026-05-06 18:05 | 48.65836 | 9.66588 | 14018 ft | 387 kts | 99° |
| 2026-05-06 18:06 | 48.65480 | 9.70641 | 14591 ft | 389 kts | 100° |
| 2026-05-06 18:06 | 48.65102 | 9.74702 | 15152 ft | 391 kts | 100° |
| 2026-05-06 18:06 | 48.64719 | 9.78786 | 15724 ft | 393 kts | 100° |
| 2026-05-06 18:06 | 48.64338 | 9.82894 | 16305 ft | 395 kts | 100° |
| 2026-05-06 18:07 | 48.63960 | 9.87027 | 16881 ft | 398 kts | 100° |
| 2026-05-06 18:07 | 48.63585 | 9.91175 | 17468 ft | 400 kts | 100° |
| 2026-05-06 18:07 | 48.63210 | 9.95360 | 18074 ft | 402 kts | 101° |
| 2026-05-06 18:07 | 48.62833 | 9.99564 | 18606 ft | 405 kts | 101° |
| 2026-05-06 18:08 | 48.62456 | 10.03792 | 19130 ft | 407 kts | 101° |
| 2026-05-06 18:08 | 48.62076 | 10.08047 | 19646 ft | 410 kts | 101° |
| 2026-05-06 18:08 | 48.61693 | 10.12331 | 20154 ft | 412 kts | 101° |
| 2026-05-06 18:08 | 48.61303 | 10.16637 | 20626 ft | 415 kts | 101° |
| 2026-05-06 18:09 | 48.60905 | 10.20971 | 21080 ft | 417 kts | 102° |
| 2026-05-06 18:09 | 48.60503 | 10.25325 | 21524 ft | 419 kts | 102° |
| 2026-05-06 18:09 | 48.60098 | 10.29700 | 21958 ft | 421 kts | 102° |
| 2026-05-06 18:09 | 48.59691 | 10.34089 | 22369 ft | 423 kts | 102° |
| 2026-05-06 18:10 | 48.59280 | 10.38500 | 22766 ft | 425 kts | 102° |
| 2026-05-06 18:10 | 48.58868 | 10.42938 | 23151 ft | 428 kts | 102° |
| 2026-05-06 18:10 | 48.58452 | 10.47392 | 23510 ft | 430 kts | 102° |
| 2026-05-06 18:10 | 48.58032 | 10.51822 | 23817 ft | 432 kts | 102° |
| 2026-05-06 18:11 | 48.57603 | 10.56322 | 24100 ft | 435 kts | 102° |
| 2026-05-06 18:11 | 48.57164 | 10.60909 | 24384 ft | 437 kts | 102° |
| 2026-05-06 18:11 | 48.56731 | 10.65417 | 24656 ft | 440 kts | 102° |
| 2026-05-06 18:11 | 48.56291 | 10.69999 | 24927 ft | 442 kts | 102° |
| 2026-05-06 18:12 | 48.55850 | 10.74603 | 25209 ft | 444 kts | 102° |
| 2026-05-06 18:12 | 48.55403 | 10.79236 | 25489 ft | 447 kts | 102° |
| 2026-05-06 18:12 | 48.54952 | 10.83887 | 25781 ft | 449 kts | 102° |
| 2026-05-06 18:12 | 48.54497 | 10.88555 | 26049 ft | 451 kts | 102° |
| 2026-05-06 18:13 | 48.54036 | 10.93262 | 26318 ft | 454 kts | 102° |
| 2026-05-06 18:13 | 48.53572 | 10.97980 | 26657 ft | 454 kts | 102° |
| 2026-05-06 18:13 | 48.53106 | 11.02697 | 27058 ft | 453 kts | 103° |
| 2026-05-06 18:13 | 48.52639 | 11.07401 | 27433 ft | 453 kts | 103° |
| 2026-05-06 18:14 | 48.52171 | 11.12108 | 27799 ft | 454 kts | 103° |
| 2026-05-06 18:14 | 48.51700 | 11.16824 | 28179 ft | 454 kts | 103° |
| 2026-05-06 18:14 | 48.51229 | 11.21521 | 28544 ft | 454 kts | 103° |
| 2026-05-06 18:14 | 48.50751 | 11.26234 | 28896 ft | 454 kts | 103° |
| 2026-05-06 18:15 | 48.50274 | 11.30947 | 29274 ft | 455 kts | 103° |
| 2026-05-06 18:15 | 48.49807 | 11.35567 | 29651 ft | 455 kts | 103° |
| 2026-05-06 18:15 | 48.49327 | 11.40285 | 29997 ft | 455 kts | 103° |
| 2026-05-06 18:15 | 48.48843 | 11.45009 | 30316 ft | 455 kts | 104° |
| 2026-05-06 18:16 | 48.48358 | 11.49714 | 30641 ft | 455 kts | 104° |
| 2026-05-06 18:16 | 48.47871 | 11.54420 | 31002 ft | 455 kts | 104° |
| 2026-05-06 18:16 | 48.47375 | 11.59133 | 31316 ft | 455 kts | 104° |
| 2026-05-06 18:16 | 48.46876 | 11.63846 | 31635 ft | 455 kts | 104° |
| 2026-05-06 18:17 | 48.46377 | 11.68565 | 31957 ft | 456 kts | 104° |
| 2026-05-06 18:17 | 48.45880 | 11.73284 | 32279 ft | 457 kts | 104° |
| 2026-05-06 18:17 | 48.45382 | 11.78016 | 32598 ft | 457 kts | 104° |
| 2026-05-06 18:17 | 48.44883 | 11.82737 | 32911 ft | 458 kts | 104° |
| 2026-05-06 18:18 | 48.44377 | 11.87487 | 33218 ft | 458 kts | 105° |
| 2026-05-06 18:18 | 48.43871 | 11.92223 | 33522 ft | 459 kts | 105° |
| 2026-05-06 18:18 | 48.43363 | 11.96969 | 33816 ft | 459 kts | 105° |
| 2026-05-06 18:18 | 48.42852 | 12.01719 | 34059 ft | 460 kts | 105° |
| 2026-05-06 18:19 | 48.42335 | 12.06475 | 34301 ft | 460 kts | 105° |
| 2026-05-06 18:19 | 48.41818 | 12.11220 | 34549 ft | 460 kts | 105° |
| 2026-05-06 18:19 | 48.41298 | 12.15981 | 34756 ft | 460 kts | 105° |
| 2026-05-06 18:19 | 48.40777 | 12.20749 | 34810 ft | 464 kts | 105° |
| 2026-05-06 18:20 | 48.39711 | 12.30393 | 34807 ft | 476 kts | 105° |
| 2026-05-06 18:20 | 48.38611 | 12.40302 | 34796 ft | 478 kts | 105° |
| 2026-05-06 18:21 | 48.37519 | 12.50098 | 34797 ft | 478 kts | 105° |
| 2026-05-06 18:21 | 48.36404 | 12.59967 | 34786 ft | 479 kts | 105° |
| 2026-05-06 18:22 | 48.35273 | 12.69850 | 34780 ft | 480 kts | 105° |
| 2026-05-06 18:22 | 48.34137 | 12.79738 | 34772 ft | 480 kts | 105° |
| 2026-05-06 18:23 | 48.32996 | 12.89638 | 34765 ft | 481 kts | 105° |
| 2026-05-06 18:23 | 48.31846 | 12.99541 | 34748 ft | 481 kts | 106° |
| 2026-05-06 18:24 | 48.30679 | 13.09441 | 34740 ft | 481 kts | 106° |
| 2026-05-06 18:24 | 48.29497 | 13.19314 | 34729 ft | 480 kts | 107° |
| 2026-05-06 18:25 | 48.28196 | 13.29136 | 34725 ft | 479 kts | 108° |
| 2026-05-06 18:25 | 48.26792 | 13.38832 | 34716 ft | 478 kts | 109° |
| 2026-05-06 18:26 | 48.25373 | 13.48586 | 34718 ft | 478 kts | 109° |
| 2026-05-06 18:26 | 48.23984 | 13.58331 | 34717 ft | 478 kts | 109° |
| 2026-05-06 18:27 | 48.22600 | 13.68099 | 34707 ft | 478 kts | 109° |
| 2026-05-06 18:27 | 48.21202 | 13.77863 | 34710 ft | 478 kts | 109° |
| 2026-05-06 18:28 | 48.20025 | 13.86018 | 34709 ft | 478 kts | 109° |
| 2026-05-06 18:28 | 48.18612 | 13.95710 | 34706 ft | 478 kts | 109° |
| 2026-05-06 18:29 | 48.17177 | 14.05458 | 34711 ft | 479 kts | 109° |
| 2026-05-06 18:29 | 48.15740 | 14.15204 | 34708 ft | 479 kts | 109° |
| 2026-05-06 18:30 | 48.14301 | 14.24947 | 34706 ft | 479 kts | 109° |
| 2026-05-06 18:30 | 48.12841 | 14.34686 | 34699 ft | 480 kts | 109° |
| 2026-05-06 18:31 | 48.11373 | 14.44432 | 34711 ft | 480 kts | 109° |
| 2026-05-06 18:31 | 48.09895 | 14.54191 | 34704 ft | 481 kts | 109° |
| 2026-05-06 18:32 | 48.08412 | 14.63959 | 34695 ft | 482 kts | 109° |
| 2026-05-06 18:32 | 48.06917 | 14.73734 | 34706 ft | 482 kts | 109° |
| 2026-05-06 18:33 | 48.05412 | 14.83526 | 34709 ft | 483 kts | 109° |
| 2026-05-06 18:33 | 48.04068 | 14.92607 | 34710 ft | 484 kts | 108° |
| 2026-05-06 18:34 | 48.02805 | 15.01583 | 34712 ft | 485 kts | 107° |
| 2026-05-06 18:34 | 48.01415 | 15.11454 | 34737 ft | 485 kts | 107° |
| 2026-05-06 18:35 | 47.99986 | 15.21298 | 34736 ft | 484 kts | 107° |
| 2026-05-06 18:35 | 47.98532 | 15.31120 | 34736 ft | 485 kts | 108° |
| 2026-05-06 18:36 | 47.97081 | 15.40953 | 34746 ft | 485 kts | 107° |
| 2026-05-06 18:36 | 47.95633 | 15.50741 | 34770 ft | 483 kts | 107° |
| 2026-05-06 18:37 | 47.94177 | 15.60494 | 34770 ft | 480 kts | 107° |
| 2026-05-06 18:37 | 47.92715 | 15.70240 | 34757 ft | 481 kts | 107° |
| 2026-05-06 18:38 | 47.91249 | 15.79952 | 34760 ft | 480 kts | 107° |
| 2026-05-06 18:38 | 47.89784 | 15.89603 | 34761 ft | 480 kts | 107° |
| 2026-05-06 18:39 | 47.88306 | 15.99293 | 34763 ft | 480 kts | 107° |
| 2026-05-06 18:40 | 47.86062 | 16.13837 | 34767 ft | 481 kts | 108° |
| 2026-05-06 18:40 | 47.84556 | 16.23534 | 34783 ft | 480 kts | 108° |
| 2026-05-06 18:41 | 47.83044 | 16.33198 | 34792 ft | 479 kts | 108° |
| 2026-05-06 18:41 | 47.81526 | 16.42844 | 34800 ft | 478 kts | 107° |
| 2026-05-06 18:42 | 47.80005 | 16.52470 | 34810 ft | 477 kts | 107° |
| 2026-05-06 18:42 | 47.78482 | 16.62063 | 34808 ft | 477 kts | 107° |
| 2026-05-06 18:43 | 47.76952 | 16.71648 | 34814 ft | 476 kts | 107° |
| 2026-05-06 18:43 | 47.75427 | 16.81152 | 34811 ft | 476 kts | 107° |
| 2026-05-06 18:44 | 47.73881 | 16.90696 | 34818 ft | 475 kts | 107° |
| 2026-05-06 18:44 | 47.72325 | 17.00233 | 34827 ft | 475 kts | 107° |
| 2026-05-06 18:44 | 47.71739 | 17.05068 | 34830 ft | 479 kts | 96° |
| 2026-05-06 18:45 | 47.71940 | 17.10014 | 34813 ft | 483 kts | 79° |
| 2026-05-06 18:45 | 47.72991 | 17.14760 | 34791 ft | 486 kts | 67° |
| 2026-05-06 18:45 | 47.74309 | 17.19254 | 34792 ft | 486 kts | 67° |
| 2026-05-06 18:46 | 47.77012 | 17.28473 | 34801 ft | 486 kts | 67° |
| 2026-05-06 18:46 | 47.79694 | 17.37713 | 34814 ft | 486 kts | 68° |
| 2026-05-06 18:47 | 47.82352 | 17.46966 | 34826 ft | 486 kts | 68° |
| 2026-05-06 18:47 | 47.84885 | 17.55811 | 34831 ft | 486 kts | 68° |
| 2026-05-06 18:48 | 47.87533 | 17.65059 | 34837 ft | 486 kts | 68° |
| 2026-05-06 18:48 | 47.90177 | 17.74337 | 34841 ft | 486 kts | 68° |
| 2026-05-06 18:49 | 47.92812 | 17.83623 | 34840 ft | 486 kts | 68° |
| 2026-05-06 18:49 | 47.95439 | 17.92906 | 34833 ft | 485 kts | 68° |
| 2026-05-06 18:49 | 47.96734 | 17.97480 | 34834 ft | 472 kts | 68° |
| 2026-05-06 18:50 | 47.98009 | 18.01980 | 34836 ft | 471 kts | 68° |
| 2026-05-06 18:50 | 48.00564 | 18.11004 | 34522 ft | 472 kts | 68° |
| 2026-05-06 18:50 | 48.01841 | 18.15523 | 33913 ft | 473 kts | 68° |
| 2026-05-06 18:51 | 48.03122 | 18.20061 | 33145 ft | 475 kts | 68° |
| 2026-05-06 18:51 | 48.04405 | 18.24613 | 32374 ft | 477 kts | 68° |
| 2026-05-06 18:51 | 48.05675 | 18.29134 | 31617 ft | 478 kts | 68° |
| 2026-05-06 18:51 | 48.06960 | 18.33726 | 30861 ft | 479 kts | 68° |
| 2026-05-06 18:52 | 48.08246 | 18.38337 | 30094 ft | 481 kts | 68° |
| 2026-05-06 18:52 | 48.09530 | 18.42960 | 29214 ft | 482 kts | 68° |
| 2026-05-06 18:52 | 48.10815 | 18.47587 | 28311 ft | 483 kts | 68° |
| 2026-05-06 18:52 | 48.12107 | 18.52232 | 27385 ft | 483 kts | 68° |
| 2026-05-06 18:53 | 48.13402 | 18.56879 | 26463 ft | 484 kts | 68° |
| 2026-05-06 18:53 | 48.14696 | 18.61513 | 25540 ft | 485 kts | 68° |
| 2026-05-06 18:53 | 48.16003 | 18.66180 | 25095 ft | 485 kts | 68° |
| 2026-05-06 18:53 | 48.17310 | 18.70855 | 24881 ft | 488 kts | 68° |
| 2026-05-06 18:54 | 48.18621 | 18.75548 | 24859 ft | 489 kts | 68° |
| 2026-05-06 18:54 | 48.19932 | 18.80248 | 24873 ft | 489 kts | 68° |
| 2026-05-06 18:54 | 48.21241 | 18.84955 | 24877 ft | 489 kts | 68° |
| 2026-05-06 18:54 | 48.22547 | 18.89653 | 24879 ft | 489 kts | 68° |
| 2026-05-06 18:55 | 48.23854 | 18.94372 | 24878 ft | 488 kts | 68° |
| 2026-05-06 18:55 | 48.25157 | 18.99091 | 24882 ft | 488 kts | 68° |
| 2026-05-06 18:55 | 48.26450 | 19.03787 | 24883 ft | 488 kts | 68° |
| 2026-05-06 18:55 | 48.27747 | 19.08503 | 24885 ft | 488 kts | 68° |
| 2026-05-06 18:56 | 48.29035 | 19.13197 | 24885 ft | 488 kts | 68° |
| 2026-05-06 18:56 | 48.30326 | 19.17918 | 24886 ft | 488 kts | 68° |
| 2026-05-06 18:56 | 48.31615 | 19.22633 | 24887 ft | 488 kts | 68° |
| 2026-05-06 18:56 | 48.32898 | 19.27335 | 24888 ft | 487 kts | 68° |
| 2026-05-06 18:57 | 48.34180 | 19.32047 | 24889 ft | 487 kts | 68° |
| 2026-05-06 18:57 | 48.35467 | 19.36760 | 24889 ft | 487 kts | 68° |
| 2026-05-06 18:57 | 48.36756 | 19.41455 | 24748 ft | 485 kts | 68° |
| 2026-05-06 18:57 | 48.38027 | 19.46153 | 24103 ft | 482 kts | 68° |
| 2026-05-06 18:58 | 48.39253 | 19.50822 | 23304 ft | 478 kts | 69° |
| 2026-05-06 18:58 | 48.40430 | 19.55417 | 22437 ft | 474 kts | 70° |
| 2026-05-06 18:58 | 48.41599 | 19.60050 | 21573 ft | 470 kts | 70° |
| 2026-05-06 18:58 | 48.42740 | 19.64588 | 20719 ft | 458 kts | 70° |
| 2026-05-06 18:59 | 48.43859 | 19.69044 | 19908 ft | 453 kts | 70° |
| 2026-05-06 18:59 | 48.44971 | 19.73471 | 19109 ft | 448 kts | 70° |
| 2026-05-06 18:59 | 48.46116 | 19.77811 | 18330 ft | 444 kts | 69° |
| 2026-05-06 18:59 | 48.47315 | 19.82096 | 17468 ft | 440 kts | 68° |
| 2026-05-06 19:00 | 48.48533 | 19.86300 | 16620 ft | 435 kts | 68° |
| 2026-05-06 19:00 | 48.49748 | 19.90453 | 15783 ft | 431 kts | 68° |
| 2026-05-06 19:00 | 48.50948 | 19.94578 | 14968 ft | 426 kts | 68° |
| 2026-05-06 19:00 | 48.51728 | 19.97290 | 14454 ft | 423 kts | 68° |
| 2026-05-06 19:01 | 48.53234 | 20.02617 | 14002 ft | 416 kts | 69° |
| 2026-05-06 19:01 | 48.54360 | 20.06653 | 13862 ft | 417 kts | 69° |
| 2026-05-06 19:01 | 48.55482 | 20.10691 | 13897 ft | 416 kts | 69° |
| 2026-05-06 19:01 | 48.56601 | 20.14716 | 13898 ft | 417 kts | 69° |
| 2026-05-06 19:02 | 48.57730 | 20.18769 | 13897 ft | 418 kts | 69° |
| 2026-05-06 19:02 | 48.58856 | 20.22810 | 13847 ft | 416 kts | 69° |
| 2026-05-06 19:02 | 48.59973 | 20.26820 | 13365 ft | 412 kts | 69° |
| 2026-05-06 19:02 | 48.61075 | 20.30785 | 12707 ft | 408 kts | 69° |
| 2026-05-06 19:03 | 48.62166 | 20.34721 | 12043 ft | 404 kts | 69° |
| 2026-05-06 19:03 | 48.63248 | 20.38619 | 11382 ft | 400 kts | 69° |
| 2026-05-06 19:03 | 48.64320 | 20.42485 | 10729 ft | 397 kts | 69° |
| 2026-05-06 19:03 | 48.65379 | 20.46307 | 10080 ft | 394 kts | 69° |
| 2026-05-06 19:04 | 48.66422 | 20.50091 | 9755 ft | 383 kts | 69° |
| 2026-05-06 19:04 | 48.67426 | 20.53740 | 9625 ft | 366 kts | 69° |
| 2026-05-06 19:04 | 48.68382 | 20.57226 | 9489 ft | 352 kts | 69° |
| 2026-05-06 19:04 | 48.69293 | 20.60547 | 9363 ft | 339 kts | 69° |
| 2026-05-06 19:05 | 48.70188 | 20.63821 | 9221 ft | 327 kts | 69° |
| 2026-05-06 19:05 | 48.71043 | 20.66952 | 9090 ft | 316 kts | 69° |
| 2026-05-06 19:05 | 48.71866 | 20.69968 | 8999 ft | 304 kts | 69° |
| 2026-05-06 19:05 | 48.72660 | 20.72879 | 9004 ft | 295 kts | 69° |
| 2026-05-06 19:06 | 48.73452 | 20.75793 | 8906 ft | 301 kts | 69° |
| 2026-05-06 19:06 | 48.74242 | 20.78708 | 8700 ft | 297 kts | 69° |
| 2026-05-06 19:06 | 48.75025 | 20.81590 | 8435 ft | 294 kts | 71° |
| 2026-05-06 19:06 | 48.75789 | 20.84413 | 8086 ft | 294 kts | 69° |
| 2026-05-06 19:07 | 48.76576 | 20.87315 | 7779 ft | 293 kts | 69° |
| 2026-05-06 19:07 | 48.77083 | 20.89184 | 7607 ft | 291 kts | 70° |
| 2026-05-06 19:07 | 48.78104 | 20.92948 | 7106 ft | 290 kts | 69° |
| 2026-05-06 19:07 | 48.78868 | 20.95775 | 6808 ft | 289 kts | 69° |
| 2026-05-06 19:08 | 48.79627 | 20.98586 | 6534 ft | 287 kts | 69° |
| 2026-05-06 19:08 | 48.80378 | 21.01370 | 6129 ft | 282 kts | 70° |
| 2026-05-06 19:08 | 48.81122 | 21.04133 | 5994 ft | 285 kts | 69° |
| 2026-05-06 19:08 | 48.81869 | 21.06921 | 6005 ft | 281 kts | 70° |
| 2026-05-06 19:09 | 48.82584 | 21.09589 | 6007 ft | 266 kts | 70° |
| 2026-05-06 19:09 | 48.83280 | 21.12184 | 5991 ft | 266 kts | 70° |
| 2026-05-06 19:09 | 48.83974 | 21.14777 | 5806 ft | 264 kts | 70° |
| 2026-05-06 19:09 | 48.84653 | 21.17360 | 5516 ft | 263 kts | 74° |
| 2026-05-06 19:10 | 48.84977 | 21.20052 | 5199 ft | 257 kts | 95° |
| 2026-05-06 19:10 | 48.84773 | 21.22693 | 4878 ft | 248 kts | 110° |
| 2026-05-06 19:10 | 48.84369 | 21.25235 | 4552 ft | 248 kts | 109° |
| 2026-05-06 19:10 | 48.83793 | 21.27652 | 4155 ft | 238 kts | 133° |
| 2026-05-06 19:11 | 48.82582 | 21.29125 | 3790 ft | 214 kts | 167° |
| 2026-05-06 19:11 | 48.81201 | 21.29342 | 3464 ft | 193 kts | 194° |
| 2026-05-06 19:11 | 48.80352 | 21.29009 | 3351 ft | 192 kts | 199° |
| 2026-05-06 19:11 | 48.78680 | 21.28303 | 3298 ft | 176 kts | 197° |
| 2026-05-06 19:12 | 48.77918 | 21.28036 | 3263 ft | 159 kts | 195° |
| 2026-05-06 19:12 | 48.76886 | 21.27731 | 3107 ft | 145 kts | 195° |
| 2026-05-06 19:12 | 48.75922 | 21.27476 | 2930 ft | 141 kts | 194° |
| 2026-05-06 19:12 | 48.74962 | 21.27212 | 2737 ft | 140 kts | 195° |
| 2026-05-06 19:13 | 48.74014 | 21.26880 | 2405 ft | 138 kts | 198° |
| 2026-05-06 19:13 | 48.73088 | 21.26497 | 2091 ft | 139 kts | 196° |
| 2026-05-06 19:13 | 48.72176 | 21.26153 | 1791 ft | 136 kts | 195° |
| 2026-05-06 19:13 | 48.71237 | 21.25826 | 1535 ft | 140 kts | 193° |
| 2026-05-06 19:14 | 48.70283 | 21.25527 | 1259 ft | 143 kts | 194° |
| 2026-05-06 19:14 | 48.69320 | 21.25177 | 1121 ft | 143 kts | 193° |
| 2026-05-06 19:14 | 48.68336 | 21.24819 | 948 ft | 146 kts | 191° |
| 2026-05-06 19:14 | 48.67357 | 21.24479 | 778 ft | 143 kts | 192° |
| 2026-05-06 19:15 | 48.66550 | 21.24214 | 754 ft | 75 kts | 193° |
| 2026-05-06 19:15 | 48.66164 | 21.24078 | 751 ft | 41 kts | 196° |
| 2026-05-06 19:15 | 48.65934 | 21.24014 | 750 ft | 23 kts | 146° |
| 2026-05-06 19:15 | 48.65890 | 21.24204 | 751 ft | 20 kts | 102° |
| 2026-05-06 19:16 | 48.65904 | 21.24310 | 752 ft | 9 kts | 45° |
| 2026-05-06 19:16 | 48.65971 | 21.24352 | 753 ft | 12 kts | 16° |
| 2026-05-06 19:16 | 48.66065 | 21.24387 | 751 ft | 15 kts | 10° |
| 2026-05-06 19:16 | 48.66176 | 21.24422 | 749 ft | 17 kts | 13° |
| 2026-05-06 19:17 | 48.66298 | 21.24467 | 749 ft | 20 kts | 13° |
| 2026-05-06 19:17 | 48.66431 | 21.24516 | 753 ft | 20 kts | 14° |
| 2026-05-06 19:17 | 48.66563 | 21.24558 | 756 ft | 19 kts | 13° |
| 2026-05-06 19:17 | 48.66694 | 21.24606 | 759 ft | 19 kts | 12° |
| 2026-05-06 19:18 | 48.66836 | 21.24653 | 758 ft | 23 kts | 13° |
| 2026-05-06 19:18 | 48.66992 | 21.24706 | 762 ft | 23 kts | 13° |
| 2026-05-06 19:18 | 48.67047 | 21.24726 | 757 ft | 2 kts | 13° |
| 2026-05-06 19:18 | 48.67074 | 21.24735 | 759 ft | 6 kts | 12° |
| 2026-05-06 19:19 | 48.67127 | 21.24751 | 758 ft | 9 kts | 8° |
| 2026-05-06 19:19 | 48.67181 | 21.24698 | 755 ft | 11 kts | 289° |
| 2026-05-06 19:19 | 48.67203 | 21.24584 | 759 ft | 12 kts | 283° |
| 2026-05-06 19:19 | 48.67222 | 21.24456 | 758 ft | 14 kts | 282° |
| 2026-05-06 19:20 | 48.67246 | 21.24303 | 758 ft | 16 kts | 283° |
| 2026-05-06 19:20 | 48.67273 | 21.24137 | 760 ft | 16 kts | 285° |
| 2026-05-06 19:20 | 48.67303 | 21.23967 | 763 ft | 17 kts | 285° |
| 2026-05-06 19:20 | 48.67344 | 21.23887 | 765 ft | 5 kts | 278° |
| 2026-05-06 19:21 | 48.67339 | 21.23850 | 766 ft | 3 kts | 234° |
| 2026-05-06 19:21 | 48.67336 | 21.23845 | 766 ft | 0 kts | 224° |